sensor_id;sensor_type;location;lat;lon;timestamp;P1;durP1;ratioP1;P2;durP2;ratioP2
14080;SDS011;7116;52.152;5.392;2023-10-08T00:01:08;16.48;;;5.95;;
14080;SDS011;7116;52.152;5.392;2023-10-08T00:03:36;14.35;;;5.25;;
14080;SDS011;7116;52.152;5.392;2023-10-08T00:06:03;13.95;;;5.30;;
14080;SDS011;7116;52.152;5.392;2023-10-08T00:08:32;15.00;;;5.03;;
14080;SDS011;7116;52.152;5.392;2023-10-08T00:10:57;18.48;;;5.93;;
14080;SDS011;7116;52.152;5.392;2023-10-08T00:13:28;19.58;;;5.53;;
14080;SDS011;7116;52.152;5.392;2023-10-08T00:15:54;16.73;;;5.30;;
14080;SDS011;7116;52.152;5.392;2023-10-08T00:18:21;14.75;;;5.07;;
14080;SDS011;7116;52.152;5.392;2023-10-08T00:20:47;16.27;;;5.55;;
14080;SDS011;7116;52.152;5.392;2023-10-08T00:23:22;12.02;;;5.43;;
14080;SDS011;7116;52.152;5.392;2023-10-08T00:25:50;20.23;;;5.60;;
14080;SDS011;7116;52.152;5.392;2023-10-08T00:28:16;20.38;;;5.68;;
14080;SDS011;7116;52.152;5.392;2023-10-08T00:30:42;17.43;;;5.60;;
14080;SDS011;7116;52.152;5.392;2023-10-08T00:33:08;23.35;;;5.63;;
14080;SDS011;7116;52.152;5.392;2023-10-08T00:35:40;18.60;;;5.70;;
14080;SDS011;7116;52.152;5.392;2023-10-08T00:38:08;16.08;;;5.85;;
14080;SDS011;7116;52.152;5.392;2023-10-08T00:40:41;17.30;;;5.43;;
14080;SDS011;7116;52.152;5.392;2023-10-08T00:43:10;18.67;;;6.03;;
14080;SDS011;7116;52.152;5.392;2023-10-08T00:45:40;18.60;;;5.50;;
14080;SDS011;7116;52.152;5.392;2023-10-08T00:48:09;16.17;;;5.15;;
14080;SDS011;7116;52.152;5.392;2023-10-08T00:50:40;18.65;;;5.82;;
14080;SDS011;7116;52.152;5.392;2023-10-08T00:53:10;19.03;;;5.00;;
14080;SDS011;7116;52.152;5.392;2023-10-08T00:55:48;14.65;;;5.03;;
14080;SDS011;7116;52.152;5.392;2023-10-08T00:58:19;16.70;;;5.22;;
14080;SDS011;7116;52.152;5.392;2023-10-08T01:00:50;21.85;;;5.22;;
14080;SDS011;7116;52.152;5.392;2023-10-08T01:03:17;17.48;;;5.03;;
14080;SDS011;7116;52.152;5.392;2023-10-08T01:05:44;18.13;;;5.57;;
14080;SDS011;7116;52.152;5.392;2023-10-08T01:08:13;18.23;;;5.55;;
14080;SDS011;7116;52.152;5.392;2023-10-08T01:10:42;14.90;;;5.53;;
14080;SDS011;7116;52.152;5.392;2023-10-08T01:13:12;19.30;;;5.38;;
14080;SDS011;7116;52.152;5.392;2023-10-08T01:15:41;15.32;;;5.50;;
14080;SDS011;7116;52.152;5.392;2023-10-08T01:18:16;13.93;;;5.03;;
14080;SDS011;7116;52.152;5.392;2023-10-08T01:20:43;21.23;;;5.65;;
14080;SDS011;7116;52.152;5.392;2023-10-08T01:23:18;19.05;;;5.43;;
14080;SDS011;7116;52.152;5.392;2023-10-08T01:25:46;20.25;;;5.72;;
14080;SDS011;7116;52.152;5.392;2023-10-08T01:28:22;20.15;;;6.38;;
14080;SDS011;7116;52.152;5.392;2023-10-08T01:30:55;18.40;;;4.87;;
14080;SDS011;7116;52.152;5.392;2023-10-08T01:33:21;20.25;;;5.85;;
14080;SDS011;7116;52.152;5.392;2023-10-08T01:35:47;15.60;;;5.18;;
14080;SDS011;7116;52.152;5.392;2023-10-08T01:38:15;21.70;;;5.20;;
14080;SDS011;7116;52.152;5.392;2023-10-08T01:40:46;20.88;;;5.70;;
14080;SDS011;7116;52.152;5.392;2023-10-08T01:43:15;17.20;;;5.40;;
14080;SDS011;7116;52.152;5.392;2023-10-08T01:45:41;15.65;;;5.65;;
14080;SDS011;7116;52.152;5.392;2023-10-08T01:48:08;18.30;;;11.70;;
14080;SDS011;7116;52.152;5.392;2023-10-08T01:50:36;18.08;;;6.05;;
14080;SDS011;7116;52.152;5.392;2023-10-08T01:53:02;16.05;;;5.68;;
14080;SDS011;7116;52.152;5.392;2023-10-08T01:55:30;20.48;;;5.97;;
14080;SDS011;7116;52.152;5.392;2023-10-08T01:57:59;20.45;;;6.30;;
14080;SDS011;7116;52.152;5.392;2023-10-08T02:00:24;16.50;;;5.87;;
14080;SDS011;7116;52.152;5.392;2023-10-08T02:02:51;21.73;;;6.13;;
14080;SDS011;7116;52.152;5.392;2023-10-08T02:05:17;21.10;;;6.38;;
14080;SDS011;7116;52.152;5.392;2023-10-08T02:07:44;18.73;;;5.60;;
14080;SDS011;7116;52.152;5.392;2023-10-08T02:10:09;21.15;;;6.22;;
14080;SDS011;7116;52.152;5.392;2023-10-08T02:12:36;18.13;;;6.07;;
14080;SDS011;7116;52.152;5.392;2023-10-08T02:15:01;16.73;;;5.40;;
14080;SDS011;7116;52.152;5.392;2023-10-08T02:17:27;19.73;;;5.28;;
14080;SDS011;7116;52.152;5.392;2023-10-08T02:19:53;22.80;;;5.80;;
14080;SDS011;7116;52.152;5.392;2023-10-08T02:22:18;18.83;;;6.50;;
14080;SDS011;7116;52.152;5.392;2023-10-08T02:24:44;17.35;;;5.45;;
14080;SDS011;7116;52.152;5.392;2023-10-08T02:27:09;18.33;;;5.70;;
14080;SDS011;7116;52.152;5.392;2023-10-08T02:29:35;18.17;;;6.17;;
14080;SDS011;7116;52.152;5.392;2023-10-08T02:32:00;25.23;;;5.70;;
14080;SDS011;7116;52.152;5.392;2023-10-08T02:34:25;16.90;;;5.33;;
14080;SDS011;7116;52.152;5.392;2023-10-08T02:36:51;17.53;;;6.10;;
14080;SDS011;7116;52.152;5.392;2023-10-08T02:39:16;17.27;;;6.00;;
14080;SDS011;7116;52.152;5.392;2023-10-08T02:41:51;19.30;;;6.60;;
14080;SDS011;7116;52.152;5.392;2023-10-08T02:44:16;21.83;;;5.77;;
14080;SDS011;7116;52.152;5.392;2023-10-08T02:46:45;22.40;;;7.10;;
14080;SDS011;7116;52.152;5.392;2023-10-08T02:49:12;17.07;;;5.80;;
14080;SDS011;7116;52.152;5.392;2023-10-08T02:51:42;14.90;;;5.55;;
14080;SDS011;7116;52.152;5.392;2023-10-08T02:54:09;17.95;;;5.88;;
14080;SDS011;7116;52.152;5.392;2023-10-08T02:56:45;16.48;;;6.38;;
14080;SDS011;7116;52.152;5.392;2023-10-08T02:59:13;11.70;;;5.03;;
14080;SDS011;7116;52.152;5.392;2023-10-08T03:01:40;16.27;;;6.13;;
14080;SDS011;7116;52.152;5.392;2023-10-08T03:04:09;17.73;;;6.20;;
14080;SDS011;7116;52.152;5.392;2023-10-08T03:06:44;13.55;;;6.13;;
14080;SDS011;7116;52.152;5.392;2023-10-08T03:09:14;12.70;;;5.75;;
14080;SDS011;7116;52.152;5.392;2023-10-08T03:11:39;14.63;;;5.80;;
14080;SDS011;7116;52.152;5.392;2023-10-08T03:14:07;18.33;;;5.72;;
14080;SDS011;7116;52.152;5.392;2023-10-08T03:16:40;18.47;;;6.83;;
14080;SDS011;7116;52.152;5.392;2023-10-08T03:19:06;13.15;;;5.35;;
14080;SDS011;7116;52.152;5.392;2023-10-08T03:21:31;12.33;;;5.50;;
14080;SDS011;7116;52.152;5.392;2023-10-08T03:24:02;17.42;;;6.05;;
14080;SDS011;7116;52.152;5.392;2023-10-08T03:26:37;13.82;;;5.22;;
14080;SDS011;7116;52.152;5.392;2023-10-08T03:29:03;18.52;;;6.68;;
14080;SDS011;7116;52.152;5.392;2023-10-08T03:31:43;16.37;;;6.33;;
14080;SDS011;7116;52.152;5.392;2023-10-08T03:34:12;18.63;;;6.20;;
14080;SDS011;7116;52.152;5.392;2023-10-08T03:36:43;15.77;;;5.95;;
14080;SDS011;7116;52.152;5.392;2023-10-08T03:39:12;18.73;;;6.32;;
14080;SDS011;7116;52.152;5.392;2023-10-08T03:41:43;13.32;;;5.57;;
14080;SDS011;7116;52.152;5.392;2023-10-08T03:44:31;15.67;;;5.90;;
14080;SDS011;7116;52.152;5.392;2023-10-08T03:46:56;17.63;;;6.00;;
14080;SDS011;7116;52.152;5.392;2023-10-08T03:49:22;11.73;;;5.38;;
14080;SDS011;7116;52.152;5.392;2023-10-08T03:51:47;14.60;;;6.37;;
14080;SDS011;7116;52.152;5.392;2023-10-08T03:54:13;16.33;;;6.88;;
14080;SDS011;7116;52.152;5.392;2023-10-08T03:56:43;22.35;;;6.88;;
14080;SDS011;7116;52.152;5.392;2023-10-08T03:59:11;15.35;;;5.57;;
14080;SDS011;7116;52.152;5.392;2023-10-08T04:01:45;17.77;;;5.77;;
14080;SDS011;7116;52.152;5.392;2023-10-08T04:04:11;13.85;;;4.80;;
14080;SDS011;7116;52.152;5.392;2023-10-08T04:06:39;14.20;;;5.15;;
14080;SDS011;7116;52.152;5.392;2023-10-08T04:09:10;16.33;;;5.20;;
14080;SDS011;7116;52.152;5.392;2023-10-08T04:11:45;19.05;;;4.38;;
14080;SDS011;7116;52.152;5.392;2023-10-08T04:14:16;18.45;;;4.88;;
14080;SDS011;7116;52.152;5.392;2023-10-08T04:16:41;21.17;;;5.23;;
14080;SDS011;7116;52.152;5.392;2023-10-08T04:19:07;13.53;;;3.90;;
14080;SDS011;7116;52.152;5.392;2023-10-08T04:21:32;9.77;;;4.15;;
14080;SDS011;7116;52.152;5.392;2023-10-08T04:23:59;13.07;;;4.40;;
14080;SDS011;7116;52.152;5.392;2023-10-08T04:26:28;11.17;;;4.00;;
14080;SDS011;7116;52.152;5.392;2023-10-08T04:28:53;16.23;;;4.27;;
14080;SDS011;7116;52.152;5.392;2023-10-08T04:31:30;15.10;;;4.15;;
14080;SDS011;7116;52.152;5.392;2023-10-08T04:34:02;10.60;;;4.07;;
14080;SDS011;7116;52.152;5.392;2023-10-08T04:36:34;12.75;;;3.53;;
14080;SDS011;7116;52.152;5.392;2023-10-08T04:39:03;10.93;;;4.32;;
14080;SDS011;7116;52.152;5.392;2023-10-08T04:41:44;8.57;;;3.50;;
14080;SDS011;7116;52.152;5.392;2023-10-08T04:44:10;7.88;;;3.85;;
14080;SDS011;7116;52.152;5.392;2023-10-08T04:46:44;9.20;;;3.95;;
14080;SDS011;7116;52.152;5.392;2023-10-08T04:49:13;9.03;;;3.17;;
14080;SDS011;7116;52.152;5.392;2023-10-08T04:51:56;12.48;;;3.65;;
14080;SDS011;7116;52.152;5.392;2023-10-08T04:54:23;8.48;;;3.08;;
14080;SDS011;7116;52.152;5.392;2023-10-08T04:56:48;10.75;;;3.97;;
14080;SDS011;7116;52.152;5.392;2023-10-08T04:59:14;9.90;;;3.20;;
14080;SDS011;7116;52.152;5.392;2023-10-08T05:01:45;7.57;;;3.57;;
14080;SDS011;7116;52.152;5.392;2023-10-08T05:04:14;6.00;;;3.20;;
14080;SDS011;7116;52.152;5.392;2023-10-08T05:06:48;11.75;;;3.97;;
14080;SDS011;7116;52.152;5.392;2023-10-08T05:09:26;9.85;;;4.15;;
14080;SDS011;7116;52.152;5.392;2023-10-08T05:12:04;10.00;;;3.78;;
14080;SDS011;7116;52.152;5.392;2023-10-08T05:14:48;10.23;;;3.70;;
14080;SDS011;7116;52.152;5.392;2023-10-08T05:17:40;9.52;;;3.83;;
14080;SDS011;7116;52.152;5.392;2023-10-08T05:20:15;13.30;;;3.63;;
14080;SDS011;7116;52.152;5.392;2023-10-08T05:22:59;8.38;;;3.72;;
14080;SDS011;7116;52.152;5.392;2023-10-08T05:25:43;15.52;;;3.45;;
14080;SDS011;7116;52.152;5.392;2023-10-08T05:28:37;7.73;;;3.57;;
14080;SDS011;7116;52.152;5.392;2023-10-08T05:31:26;14.55;;;3.95;;
14080;SDS011;7116;52.152;5.392;2023-10-08T05:34:07;12.25;;;4.00;;
14080;SDS011;7116;52.152;5.392;2023-10-08T05:36:51;10.75;;;4.30;;
14080;SDS011;7116;52.152;5.392;2023-10-08T05:39:37;10.75;;;3.72;;
14080;SDS011;7116;52.152;5.392;2023-10-08T05:42:07;8.40;;;3.67;;
14080;SDS011;7116;52.152;5.392;2023-10-08T05:44:41;9.05;;;3.53;;
14080;SDS011;7116;52.152;5.392;2023-10-08T05:47:25;6.75;;;3.72;;
14080;SDS011;7116;52.152;5.392;2023-10-08T05:50:03;10.55;;;3.10;;
14080;SDS011;7116;52.152;5.392;2023-10-08T05:52:41;8.45;;;3.65;;
14080;SDS011;7116;52.152;5.392;2023-10-08T05:55:30;11.20;;;3.10;;
14080;SDS011;7116;52.152;5.392;2023-10-08T05:58:12;11.32;;;2.92;;
14080;SDS011;7116;52.152;5.392;2023-10-08T06:00:44;5.30;;;2.60;;
14080;SDS011;7116;52.152;5.392;2023-10-08T06:03:15;9.30;;;3.00;;
14080;SDS011;7116;52.152;5.392;2023-10-08T06:06:07;6.18;;;2.70;;
14080;SDS011;7116;52.152;5.392;2023-10-08T06:08:42;8.63;;;2.47;;
14080;SDS011;7116;52.152;5.392;2023-10-08T06:11:26;9.75;;;2.75;;
14080;SDS011;7116;52.152;5.392;2023-10-08T06:14:21;5.75;;;2.33;;
14080;SDS011;7116;52.152;5.392;2023-10-08T06:17:04;5.93;;;2.38;;
14080;SDS011;7116;52.152;5.392;2023-10-08T06:19:49;7.13;;;2.50;;
14080;SDS011;7116;52.152;5.392;2023-10-08T06:22:14;7.40;;;3.17;;
14080;SDS011;7116;52.152;5.392;2023-10-08T06:24:39;6.83;;;2.53;;
14080;SDS011;7116;52.152;5.392;2023-10-08T06:27:08;4.65;;;2.42;;
14080;SDS011;7116;52.152;5.392;2023-10-08T06:29:33;6.13;;;2.30;;
14080;SDS011;7116;52.152;5.392;2023-10-08T06:31:58;9.45;;;2.85;;
14080;SDS011;7116;52.152;5.392;2023-10-08T06:34:33;6.83;;;2.77;;
14080;SDS011;7116;52.152;5.392;2023-10-08T06:36:58;5.40;;;2.63;;
14080;SDS011;7116;52.152;5.392;2023-10-08T06:39:24;7.57;;;2.70;;
14080;SDS011;7116;52.152;5.392;2023-10-08T06:42:12;3.97;;;2.22;;
14080;SDS011;7116;52.152;5.392;2023-10-08T06:44:39;5.80;;;2.27;;
14080;SDS011;7116;52.152;5.392;2023-10-08T06:47:07;6.47;;;2.70;;
14080;SDS011;7116;52.152;5.392;2023-10-08T06:49:34;3.45;;;2.40;;
14080;SDS011;7116;52.152;5.392;2023-10-08T06:52:01;6.63;;;2.67;;
14080;SDS011;7116;52.152;5.392;2023-10-08T06:54:26;3.42;;;2.10;;
14080;SDS011;7116;52.152;5.392;2023-10-08T06:56:55;5.68;;;3.15;;
14080;SDS011;7116;52.152;5.392;2023-10-08T06:59:20;3.30;;;2.17;;
14080;SDS011;7116;52.152;5.392;2023-10-08T07:01:50;3.95;;;2.42;;
14080;SDS011;7116;52.152;5.392;2023-10-08T07:04:16;3.45;;;2.42;;
14080;SDS011;7116;52.152;5.392;2023-10-08T07:06:43;3.70;;;2.93;;
14080;SDS011;7116;52.152;5.392;2023-10-08T07:09:11;2.55;;;2.03;;
14080;SDS011;7116;52.152;5.392;2023-10-08T07:11:54;3.80;;;2.90;;
14080;SDS011;7116;52.152;5.392;2023-10-08T07:14:24;4.05;;;2.30;;
14080;SDS011;7116;52.152;5.392;2023-10-08T07:16:56;4.53;;;2.72;;
14080;SDS011;7116;52.152;5.392;2023-10-08T07:19:25;3.80;;;2.17;;
14080;SDS011;7116;52.152;5.392;2023-10-08T07:21:58;4.13;;;2.38;;
14080;SDS011;7116;52.152;5.392;2023-10-08T07:24:28;2.53;;;1.95;;
14080;SDS011;7116;52.152;5.392;2023-10-08T07:26:55;2.78;;;2.45;;
14080;SDS011;7116;52.152;5.392;2023-10-08T07:29:21;3.20;;;2.10;;
14080;SDS011;7116;52.152;5.392;2023-10-08T07:31:47;3.83;;;2.67;;
14080;SDS011;7116;52.152;5.392;2023-10-08T07:34:17;4.03;;;2.83;;
14080;SDS011;7116;52.152;5.392;2023-10-08T07:36:44;3.70;;;2.50;;
14080;SDS011;7116;52.152;5.392;2023-10-08T07:39:09;3.75;;;2.60;;
14080;SDS011;7116;52.152;5.392;2023-10-08T07:41:47;4.38;;;2.90;;
14080;SDS011;7116;52.152;5.392;2023-10-08T07:44:13;3.30;;;2.30;;
14080;SDS011;7116;52.152;5.392;2023-10-08T07:46:38;3.80;;;2.67;;
14080;SDS011;7116;52.152;5.392;2023-10-08T07:49:03;3.80;;;2.60;;
14080;SDS011;7116;52.152;5.392;2023-10-08T07:51:30;3.47;;;2.83;;
14080;SDS011;7116;52.152;5.392;2023-10-08T07:53:55;3.73;;;2.57;;
14080;SDS011;7116;52.152;5.392;2023-10-08T07:56:23;3.67;;;3.00;;
14080;SDS011;7116;52.152;5.392;2023-10-08T07:58:49;5.45;;;2.92;;
14080;SDS011;7116;52.152;5.392;2023-10-08T08:01:14;3.77;;;2.87;;
14080;SDS011;7116;52.152;5.392;2023-10-08T08:03:39;5.13;;;2.60;;
14080;SDS011;7116;52.152;5.392;2023-10-08T08:06:06;4.05;;;3.10;;
14080;SDS011;7116;52.152;5.392;2023-10-08T08:08:32;3.47;;;2.47;;
14080;SDS011;7116;52.152;5.392;2023-10-08T08:10:59;4.10;;;2.53;;
14080;SDS011;7116;52.152;5.392;2023-10-08T08:13:28;3.88;;;2.85;;
14080;SDS011;7116;52.152;5.392;2023-10-08T08:15:54;4.47;;;3.10;;
14080;SDS011;7116;52.152;5.392;2023-10-08T08:18:23;3.53;;;2.50;;
14080;SDS011;7116;52.152;5.392;2023-10-08T08:20:48;3.47;;;2.93;;
14080;SDS011;7116;52.152;5.392;2023-10-08T08:23:20;3.90;;;3.20;;
14080;SDS011;7116;52.152;5.392;2023-10-08T08:25:46;4.63;;;2.60;;
14080;SDS011;7116;52.152;5.392;2023-10-08T08:28:32;3.30;;;2.42;;
14080;SDS011;7116;52.152;5.392;2023-10-08T08:31:01;5.30;;;2.67;;
14080;SDS011;7116;52.152;5.392;2023-10-08T08:33:29;4.90;;;2.80;;
14080;SDS011;7116;52.152;5.392;2023-10-08T08:36:11;4.70;;;2.85;;
14080;SDS011;7116;52.152;5.392;2023-10-08T08:38:36;4.70;;;3.40;;
14080;SDS011;7116;52.152;5.392;2023-10-08T08:41:04;5.63;;;2.78;;
14080;SDS011;7116;52.152;5.392;2023-10-08T08:43:35;3.17;;;2.42;;
14080;SDS011;7116;52.152;5.392;2023-10-08T08:46:02;3.57;;;2.37;;
14080;SDS011;7116;52.152;5.392;2023-10-08T08:48:30;5.13;;;2.88;;
14080;SDS011;7116;52.152;5.392;2023-10-08T08:50:57;5.13;;;3.00;;
14080;SDS011;7116;52.152;5.392;2023-10-08T08:53:22;4.00;;;3.10;;
14080;SDS011;7116;52.152;5.392;2023-10-08T08:55:48;8.33;;;2.97;;
14080;SDS011;7116;52.152;5.392;2023-10-08T08:58:15;4.28;;;2.80;;
14080;SDS011;7116;52.152;5.392;2023-10-08T09:00:41;3.10;;;2.50;;
14080;SDS011;7116;52.152;5.392;2023-10-08T09:03:08;6.07;;;3.00;;
14080;SDS011;7116;52.152;5.392;2023-10-08T09:05:33;3.33;;;2.33;;
14080;SDS011;7116;52.152;5.392;2023-10-08T09:08:05;3.90;;;2.60;;
14080;SDS011;7116;52.152;5.392;2023-10-08T09:10:35;5.18;;;2.95;;
14080;SDS011;7116;52.152;5.392;2023-10-08T09:13:15;4.20;;;2.58;;
14080;SDS011;7116;52.152;5.392;2023-10-08T09:15:43;3.45;;;2.78;;
14080;SDS011;7116;52.152;5.392;2023-10-08T09:18:08;3.80;;;2.60;;
14080;SDS011;7116;52.152;5.392;2023-10-08T09:20:37;4.00;;;2.50;;
14080;SDS011;7116;52.152;5.392;2023-10-08T09:23:09;5.23;;;2.60;;
14080;SDS011;7116;52.152;5.392;2023-10-08T09:25:41;6.00;;;3.00;;
14080;SDS011;7116;52.152;5.392;2023-10-08T09:28:06;6.18;;;3.20;;
14080;SDS011;7116;52.152;5.392;2023-10-08T09:30:38;6.68;;;3.00;;
14080;SDS011;7116;52.152;5.392;2023-10-08T09:33:05;6.57;;;3.13;;
14080;SDS011;7116;52.152;5.392;2023-10-08T09:35:31;4.60;;;3.10;;
14080;SDS011;7116;52.152;5.392;2023-10-08T09:37:56;5.95;;;2.40;;
14080;SDS011;7116;52.152;5.392;2023-10-08T09:40:22;6.50;;;2.90;;
14080;SDS011;7116;52.152;5.392;2023-10-08T09:42:48;5.95;;;3.10;;
14080;SDS011;7116;52.152;5.392;2023-10-08T09:45:13;3.73;;;2.70;;
14080;SDS011;7116;52.152;5.392;2023-10-08T09:47:38;3.73;;;1.97;;
14080;SDS011;7116;52.152;5.392;2023-10-08T09:50:07;4.25;;;2.88;;
14080;SDS011;7116;52.152;5.392;2023-10-08T09:52:41;5.97;;;3.40;;
14080;SDS011;7116;52.152;5.392;2023-10-08T09:55:09;5.37;;;3.37;;
14080;SDS011;7116;52.152;5.392;2023-10-08T09:57:37;10.13;;;2.97;;
14080;SDS011;7116;52.152;5.392;2023-10-08T10:00:06;5.10;;;3.30;;
14080;SDS011;7116;52.152;5.392;2023-10-08T10:02:44;4.75;;;3.10;;
14080;SDS011;7116;52.152;5.392;2023-10-08T10:05:10;5.70;;;2.90;;
14080;SDS011;7116;52.152;5.392;2023-10-08T10:07:36;5.10;;;2.90;;
14080;SDS011;7116;52.152;5.392;2023-10-08T10:10:04;7.35;;;2.58;;
14080;SDS011;7116;52.152;5.392;2023-10-08T10:12:38;3.70;;;2.85;;
14080;SDS011;7116;52.152;5.392;2023-10-08T10:15:05;4.18;;;2.72;;
14080;SDS011;7116;52.152;5.392;2023-10-08T10:17:30;5.00;;;2.73;;
14080;SDS011;7116;52.152;5.392;2023-10-08T10:20:01;4.80;;;3.17;;
14080;SDS011;7116;52.152;5.392;2023-10-08T10:22:34;4.70;;;3.38;;
14080;SDS011;7116;52.152;5.392;2023-10-08T10:25:01;5.63;;;3.13;;
14080;SDS011;7116;52.152;5.392;2023-10-08T10:27:31;4.60;;;3.17;;
14080;SDS011;7116;52.152;5.392;2023-10-08T10:30:05;3.83;;;2.97;;
14080;SDS011;7116;52.152;5.392;2023-10-08T10:32:33;4.18;;;3.17;;
14080;SDS011;7116;52.152;5.392;2023-10-08T10:34:59;3.53;;;2.50;;
14080;SDS011;7116;52.152;5.392;2023-10-08T10:37:28;4.87;;;3.37;;
14080;SDS011;7116;52.152;5.392;2023-10-08T10:40:06;4.97;;;3.60;;
14080;SDS011;7116;52.152;5.392;2023-10-08T10:42:38;6.40;;;3.50;;
14080;SDS011;7116;52.152;5.392;2023-10-08T10:45:17;7.45;;;3.55;;
14080;SDS011;7116;52.152;5.392;2023-10-08T10:48:01;5.78;;;3.45;;
14080;SDS011;7116;52.152;5.392;2023-10-08T10:50:40;5.50;;;3.37;;
14080;SDS011;7116;52.152;5.392;2023-10-08T10:53:24;4.05;;;3.15;;
14080;SDS011;7116;52.152;5.392;2023-10-08T10:55:52;4.80;;;3.33;;
14080;SDS011;7116;52.152;5.392;2023-10-08T10:58:25;4.70;;;3.10;;
14080;SDS011;7116;52.152;5.392;2023-10-08T11:00:50;5.53;;;3.73;;
14080;SDS011;7116;52.152;5.392;2023-10-08T11:03:22;4.40;;;3.28;;
14080;SDS011;7116;52.152;5.392;2023-10-08T11:05:55;3.95;;;3.30;;
14080;SDS011;7116;52.152;5.392;2023-10-08T11:08:21;5.40;;;3.70;;
14080;SDS011;7116;52.152;5.392;2023-10-08T11:10:48;4.70;;;3.77;;
14080;SDS011;7116;52.152;5.392;2023-10-08T11:13:16;5.68;;;3.50;;
14080;SDS011;7116;52.152;5.392;2023-10-08T11:15:43;4.10;;;3.50;;
14080;SDS011;7116;52.152;5.392;2023-10-08T11:18:12;5.05;;;3.70;;
14080;SDS011;7116;52.152;5.392;2023-10-08T11:20:38;5.35;;;3.63;;
14080;SDS011;7116;52.152;5.392;2023-10-08T11:23:07;3.87;;;3.23;;
14080;SDS011;7116;52.152;5.392;2023-10-08T11:25:54;8.63;;;4.55;;
14080;SDS011;7116;52.152;5.392;2023-10-08T11:28:20;4.60;;;3.83;;
14080;SDS011;7116;52.152;5.392;2023-10-08T11:30:45;5.50;;;4.13;;
14080;SDS011;7116;52.152;5.392;2023-10-08T11:33:15;5.97;;;3.80;;
14080;SDS011;7116;52.152;5.392;2023-10-08T11:38:23;8.40;;;3.90;;
14080;SDS011;7116;52.152;5.392;2023-10-08T11:40:49;5.78;;;3.95;;
14080;SDS011;7116;52.152;5.392;2023-10-08T11:43:14;6.67;;;3.93;;
14080;SDS011;7116;52.152;5.392;2023-10-08T11:45:42;6.30;;;4.17;;
14080;SDS011;7116;52.152;5.392;2023-10-08T11:48:13;5.53;;;3.97;;
14080;SDS011;7116;52.152;5.392;2023-10-08T11:50:38;6.13;;;4.03;;
14080;SDS011;7116;52.152;5.392;2023-10-08T11:53:06;6.77;;;4.00;;
14080;SDS011;7116;52.152;5.392;2023-10-08T11:55:35;5.63;;;3.85;;
14080;SDS011;7116;52.152;5.392;2023-10-08T11:58:13;5.65;;;3.78;;
14080;SDS011;7116;52.152;5.392;2023-10-08T12:00:43;4.07;;;3.15;;
14080;SDS011;7116;52.152;5.392;2023-10-08T12:03:12;6.97;;;4.50;;
14080;SDS011;7116;52.152;5.392;2023-10-08T12:05:38;7.57;;;4.10;;
14080;SDS011;7116;52.152;5.392;2023-10-08T12:08:12;6.00;;;3.80;;
14080;SDS011;7116;52.152;5.392;2023-10-08T12:10:37;5.43;;;3.92;;
14080;SDS011;7116;52.152;5.392;2023-10-08T12:13:03;6.73;;;4.23;;
14080;SDS011;7116;52.152;5.392;2023-10-08T12:15:33;5.35;;;3.40;;
14080;SDS011;7116;52.152;5.392;2023-10-08T12:18:09;6.70;;;3.88;;
14080;SDS011;7116;52.152;5.392;2023-10-08T12:20:39;6.27;;;4.20;;
14080;SDS011;7116;52.152;5.392;2023-10-08T12:23:06;5.65;;;3.95;;
14080;SDS011;7116;52.152;5.392;2023-10-08T12:25:35;5.57;;;3.28;;
14080;SDS011;7116;52.152;5.392;2023-10-08T12:28:03;5.78;;;4.00;;
14080;SDS011;7116;52.152;5.392;2023-10-08T12:30:31;4.93;;;3.17;;
14080;SDS011;7116;52.152;5.392;2023-10-08T12:32:59;5.53;;;3.23;;
14080;SDS011;7116;52.152;5.392;2023-10-08T12:35:24;5.37;;;3.20;;
14080;SDS011;7116;52.152;5.392;2023-10-08T12:37:50;7.32;;;3.00;;
14080;SDS011;7116;52.152;5.392;2023-10-08T12:40:16;5.33;;;2.93;;
14080;SDS011;7116;52.152;5.392;2023-10-08T12:42:51;8.10;;;3.33;;
14080;SDS011;7116;52.152;5.392;2023-10-08T12:45:16;8.25;;;3.70;;
14080;SDS011;7116;52.152;5.392;2023-10-08T12:47:46;5.47;;;3.35;;
14080;SDS011;7116;52.152;5.392;2023-10-08T12:50:11;5.82;;;3.63;;
14080;SDS011;7116;52.152;5.392;2023-10-08T12:52:40;5.15;;;3.33;;
14080;SDS011;7116;52.152;5.392;2023-10-08T12:55:12;4.73;;;3.07;;
14080;SDS011;7116;52.152;5.392;2023-10-08T12:57:37;5.90;;;3.60;;
14080;SDS011;7116;52.152;5.392;2023-10-08T13:00:02;4.23;;;2.97;;
14080;SDS011;7116;52.152;5.392;2023-10-08T13:02:28;6.30;;;3.20;;
14080;SDS011;7116;52.152;5.392;2023-10-08T13:04:54;8.53;;;3.20;;
14080;SDS011;7116;52.152;5.392;2023-10-08T13:07:24;5.18;;;2.83;;
14080;SDS011;7116;52.152;5.392;2023-10-08T13:09:51;5.57;;;3.20;;
14080;SDS011;7116;52.152;5.392;2023-10-08T13:12:16;4.87;;;3.00;;
14080;SDS011;7116;52.152;5.392;2023-10-08T13:14:42;6.37;;;3.00;;
14080;SDS011;7116;52.152;5.392;2023-10-08T13:17:10;5.00;;;2.83;;
14080;SDS011;7116;52.152;5.392;2023-10-08T13:19:36;6.40;;;3.17;;
14080;SDS011;7116;52.152;5.392;2023-10-08T13:22:01;4.80;;;2.53;;
14080;SDS011;7116;52.152;5.392;2023-10-08T13:24:31;4.70;;;2.78;;
14080;SDS011;7116;52.152;5.392;2023-10-08T13:26:56;9.10;;;3.33;;
14080;SDS011;7116;52.152;5.392;2023-10-08T13:29:23;3.38;;;2.13;;
14080;SDS011;7116;52.152;5.392;2023-10-08T13:31:51;4.53;;;2.70;;
14080;SDS011;7116;52.152;5.392;2023-10-08T13:34:17;4.80;;;2.22;;
14080;SDS011;7116;52.152;5.392;2023-10-08T13:36:45;6.13;;;2.63;;
14080;SDS011;7116;52.152;5.392;2023-10-08T13:39:14;6.90;;;2.33;;
14080;SDS011;7116;52.152;5.392;2023-10-08T13:41:43;4.75;;;2.95;;
14080;SDS011;7116;52.152;5.392;2023-10-08T13:44:12;4.68;;;2.45;;
14080;SDS011;7116;52.152;5.392;2023-10-08T13:46:38;8.33;;;3.10;;
14080;SDS011;7116;52.152;5.392;2023-10-08T13:49:07;4.85;;;2.55;;
14080;SDS011;7116;52.152;5.392;2023-10-08T13:51:35;5.20;;;2.87;;
14080;SDS011;7116;52.152;5.392;2023-10-08T13:54:03;5.97;;;2.50;;
14080;SDS011;7116;52.152;5.392;2023-10-08T13:56:31;5.43;;;2.42;;
14080;SDS011;7116;52.152;5.392;2023-10-08T13:58:57;4.53;;;2.70;;
14080;SDS011;7116;52.152;5.392;2023-10-08T14:01:29;5.72;;;2.42;;
14080;SDS011;7116;52.152;5.392;2023-10-08T14:03:59;6.40;;;2.67;;
14080;SDS011;7116;52.152;5.392;2023-10-08T14:06:29;5.13;;;3.00;;
14080;SDS011;7116;52.152;5.392;2023-10-08T14:08:55;5.13;;;2.23;;
14080;SDS011;7116;52.152;5.392;2023-10-08T14:11:20;7.05;;;2.50;;
14080;SDS011;7116;52.152;5.392;2023-10-08T14:13:49;6.13;;;2.57;;
14080;SDS011;7116;52.152;5.392;2023-10-08T14:16:16;6.40;;;2.92;;
14080;SDS011;7116;52.152;5.392;2023-10-08T14:18:42;6.15;;;2.80;;
14080;SDS011;7116;52.152;5.392;2023-10-08T14:21:08;6.20;;;2.73;;
14080;SDS011;7116;52.152;5.392;2023-10-08T14:23:36;6.47;;;2.78;;
14080;SDS011;7116;52.152;5.392;2023-10-08T14:26:07;7.85;;;3.17;;
14080;SDS011;7116;52.152;5.392;2023-10-08T14:28:35;3.97;;;2.50;;
14080;SDS011;7116;52.152;5.392;2023-10-08T14:31:09;10.50;;;3.20;;
14080;SDS011;7116;52.152;5.392;2023-10-08T14:33:40;6.57;;;3.22;;
14080;SDS011;7116;52.152;5.392;2023-10-08T14:36:20;5.78;;;3.65;;
14080;SDS011;7116;52.152;5.392;2023-10-08T14:39:04;5.45;;;2.78;;
14080;SDS011;7116;52.152;5.392;2023-10-08T14:41:48;5.30;;;3.87;;
14080;SDS011;7116;52.152;5.392;2023-10-08T14:44:32;5.90;;;3.47;;
14080;SDS011;7116;52.152;5.392;2023-10-08T14:46:59;7.93;;;3.75;;
14080;SDS011;7116;52.152;5.392;2023-10-08T14:49:25;6.17;;;3.67;;
14080;SDS011;7116;52.152;5.392;2023-10-08T14:51:50;7.97;;;3.43;;
14080;SDS011;7116;52.152;5.392;2023-10-08T14:54:18;5.72;;;3.35;;
14080;SDS011;7116;52.152;5.392;2023-10-08T14:56:43;5.30;;;3.17;;
14080;SDS011;7116;52.152;5.392;2023-10-08T14:59:08;6.47;;;3.27;;
14080;SDS011;7116;52.152;5.392;2023-10-08T15:01:34;5.53;;;3.00;;
14080;SDS011;7116;52.152;5.392;2023-10-08T15:03:59;5.30;;;3.07;;
14080;SDS011;7116;52.152;5.392;2023-10-08T15:06:33;8.88;;;3.78;;
14080;SDS011;7116;52.152;5.392;2023-10-08T15:08:58;5.75;;;3.30;;
14080;SDS011;7116;52.152;5.392;2023-10-08T15:11:23;5.43;;;2.80;;
14080;SDS011;7116;52.152;5.392;2023-10-08T15:13:50;5.60;;;3.40;;